createdAt,value
2022-08-26T00:02:12.779Z,20.74
2022-08-26T00:04:42.484Z,20.64
2022-08-26T00:07:11.435Z,20.69
2022-08-26T00:09:40.138Z,20.51
2022-08-26T00:12:12.450Z,20.44
2022-08-26T00:14:42.156Z,20.52
2022-08-26T00:17:10.682Z,20.32
2022-08-26T00:19:39.353Z,20.47
2022-08-26T00:22:10.142Z,20.47
2022-08-26T00:24:39.720Z,20.44
2022-08-26T00:27:16.125Z,20.38
2022-08-26T00:29:45.485Z,20.35
2022-08-26T00:32:13.692Z,20.45
2022-08-26T00:34:42.602Z,20.49
2022-08-26T00:37:14.532Z,20.29
2022-08-26T00:39:44.392Z,20.36
2022-08-26T00:42:13.993Z,20.34
2022-08-26T00:44:42.173Z,20.34
2022-08-26T00:47:17.844Z,20.34
2022-08-26T00:49:48.433Z,20.38
2022-08-26T00:52:23.052Z,20.35
2022-08-26T00:54:54.932Z,20.32
2022-08-26T00:57:24.363Z,19.65
2022-08-26T00:59:56.826Z,20.29
2022-08-26T01:02:25.907Z,20.30
2022-08-26T01:05:01.207Z,20.21
2022-08-26T01:07:35.343Z,20.30
2022-08-26T01:10:06.989Z,20.31
2022-08-26T01:12:41.344Z,20.34
2022-08-26T01:15:14.892Z,20.18
2022-08-26T01:17:44.106Z,20.38
2022-08-26T01:20:24.785Z,20.31
2022-08-26T01:22:57.872Z,20.15
2022-08-26T01:25:29.574Z,20.38
2022-08-26T01:28:00.032Z,20.33
2022-08-26T01:30:29.991Z,20.27
2022-08-26T01:33:00.386Z,20.08
2022-08-26T01:35:29.512Z,19.96
2022-08-26T01:38:00.832Z,20.09
2022-08-26T01:40:33.738Z,19.83
2022-08-26T01:43:03.634Z,19.92
2022-08-26T01:45:35.097Z,20.00
2022-08-26T01:48:06.766Z,19.73
2022-08-26T01:50:38.214Z,20.06
2022-08-26T01:53:11.063Z,20.04
2022-08-26T01:55:42.723Z,20.08
2022-08-26T01:58:15.111Z,20.00
2022-08-26T02:00:44.132Z,20.03
2022-08-26T02:03:18.916Z,20.03
2022-08-26T02:05:51.486Z,20.01
2022-08-26T02:08:24.710Z,19.98
2022-08-26T02:10:54.824Z,19.85
2022-08-26T02:13:24.452Z,19.89
2022-08-26T02:15:54.271Z,19.78
2022-08-26T02:18:23.753Z,19.95
2022-08-26T02:20:55.344Z,19.93
2022-08-26T02:23:25.971Z,19.96
2022-08-26T02:25:58.064Z,19.76
2022-08-26T02:28:29.902Z,19.94
2022-08-26T02:30:58.201Z,19.89
2022-08-26T02:33:29.313Z,19.96
2022-08-26T02:35:57.689Z,19.84
2022-08-26T02:38:27.885Z,19.79
2022-08-26T02:40:56.522Z,19.71
2022-08-26T02:43:32.665Z,19.61
2022-08-26T02:46:02.508Z,19.53
2022-08-26T02:48:31.724Z,19.53
2022-08-26T02:51:01.973Z,19.54
2022-08-26T02:53:34.028Z,19.61
2022-08-26T02:56:04.883Z,19.50
2022-08-26T02:58:33.353Z,19.55
2022-08-26T03:01:04.913Z,19.52
2022-08-26T03:03:34.522Z,19.44
2022-08-26T03:06:02.972Z,19.54
2022-08-26T03:08:32.573Z,19.52
2022-08-26T03:11:01.531Z,19.49
2022-08-26T03:13:30.332Z,19.59
2022-08-26T03:15:59.179Z,18.86
2022-08-26T03:18:27.466Z,19.71
2022-08-26T03:20:55.693Z,19.61
2022-08-26T03:23:23.885Z,19.46
2022-08-26T03:25:54.083Z,19.44
2022-08-26T03:28:22.293Z,19.42
2022-08-26T03:30:49.471Z,19.33
2022-08-26T03:33:19.216Z,19.23
2022-08-26T03:35:50.473Z,19.30
2022-08-26T03:38:19.921Z,19.19
2022-08-26T03:40:48.572Z,19.24
2022-08-26T03:43:21.589Z,19.32
2022-08-26T03:45:50.128Z,19.31
2022-08-26T03:48:19.583Z,19.40
2022-08-26T03:50:47.731Z,19.38
2022-08-26T03:53:17.035Z,19.36
2022-08-26T03:55:49.224Z,19.08
2022-08-26T03:58:24.322Z,19.28
2022-08-26T04:00:55.759Z,19.20
2022-08-26T04:03:38.209Z,19.21
2022-08-26T04:06:06.982Z,19.18
2022-08-26T04:08:35.167Z,19.13
2022-08-26T04:11:03.814Z,19.10
2022-08-26T04:13:34.108Z,19.05
2022-08-26T04:16:02.355Z,19.14
2022-08-26T04:18:37.075Z,19.26
2022-08-26T04:21:07.900Z,19.24
2022-08-26T04:23:47.496Z,19.08
2022-08-26T04:26:16.724Z,19.22
2022-08-26T04:28:46.315Z,18.88
2022-08-26T04:31:17.583Z,19.29
2022-08-26T04:33:49.589Z,19.32
2022-08-26T04:36:20.081Z,19.35
2022-08-26T04:38:49.812Z,19.44
2022-08-26T04:41:20.804Z,19.51
2022-08-26T04:43:50.944Z,19.51
2022-08-26T04:46:22.924Z,19.39
2022-08-26T04:48:52.802Z,19.44
2022-08-26T04:51:28.115Z,19.54
2022-08-26T04:53:57.191Z,19.64
2022-08-26T04:56:26.764Z,19.71
2022-08-26T04:58:56.671Z,19.81
2022-08-26T05:01:24.892Z,19.89
2022-08-26T05:03:54.919Z,19.73
2022-08-26T05:06:23.141Z,20.06
2022-08-26T05:08:51.711Z,19.83
2022-08-26T05:11:22.263Z,20.29
2022-08-26T05:13:50.862Z,20.38
2022-08-26T05:16:20.725Z,20.40
2022-08-26T05:18:49.072Z,20.60
2022-08-26T05:21:20.149Z,20.71
2022-08-26T05:23:49.522Z,20.80
2022-08-26T05:26:17.712Z,20.86
2022-08-26T05:28:51.693Z,20.40
2022-08-26T05:31:27.288Z,21.15
2022-08-26T05:33:56.924Z,21.32
2022-08-26T05:36:27.214Z,21.40
2022-08-26T05:38:56.372Z,21.50
2022-08-26T05:41:34.601Z,21.65
2022-08-26T05:44:07.577Z,21.76
2022-08-26T05:46:39.038Z,21.79
2022-08-26T05:49:12.680Z,21.99
2022-08-26T05:51:42.194Z,22.12
2022-08-26T05:54:10.768Z,22.20
2022-08-26T05:56:39.864Z,22.27
2022-08-26T05:59:14.314Z,21.92
2022-08-26T06:01:45.213Z,21.93
2022-08-26T06:04:13.921Z,22.41
2022-08-26T06:06:43.027Z,22.42
2022-08-26T06:09:13.242Z,22.02
2022-08-26T06:11:41.409Z,21.97
2022-08-26T06:14:11.865Z,22.47
2022-08-26T06:16:43.861Z,22.56
2022-08-26T06:19:17.397Z,22.71
2022-08-26T06:21:53.959Z,22.79
2022-08-26T06:24:40.046Z,22.86
2022-08-26T06:27:11.352Z,23.05
2022-08-26T06:29:39.693Z,23.25
2022-08-26T06:32:08.688Z,23.39
2022-08-26T06:34:38.712Z,23.54
2022-08-26T06:37:07.374Z,23.58
2022-08-26T06:39:35.810Z,23.80
2022-08-26T06:42:11.899Z,23.88
2022-08-26T06:44:41.767Z,23.91
2022-08-26T06:47:12.963Z,23.63
2022-08-26T06:49:42.531Z,24.22
2022-08-26T06:52:12.551Z,24.30
2022-08-26T06:54:43.202Z,24.40
2022-08-26T06:57:13.206Z,24.43
2022-08-26T06:59:42.615Z,24.49
2022-08-26T07:02:10.910Z,24.69
2022-08-26T07:04:44.541Z,24.70
2022-08-26T07:07:17.027Z,24.70
2022-08-26T07:09:45.984Z,24.66
2022-08-26T07:12:14.202Z,24.30
2022-08-26T07:14:47.336Z,25.01
2022-08-26T07:17:16.587Z,25.06
2022-08-26T07:19:46.146Z,25.13
2022-08-26T07:22:14.336Z,25.05
2022-08-26T07:24:42.741Z,25.39
2022-08-26T07:27:15.104Z,25.41
2022-08-26T07:29:44.957Z,25.51
2022-08-26T07:32:14.606Z,25.64
2022-08-26T07:34:43.622Z,25.68
2022-08-26T07:37:13.204Z,25.73
2022-08-26T07:39:43.157Z,25.79
2022-08-26T07:42:13.215Z,25.82
2022-08-26T07:44:42.924Z,26.04
2022-08-26T07:47:25.613Z,26.11
2022-08-26T07:49:56.186Z,26.16
2022-08-26T07:52:28.164Z,26.22
2022-08-26T07:54:57.235Z,26.27
2022-08-26T07:57:26.315Z,26.32
2022-08-26T07:59:55.033Z,26.41
2022-08-26T08:02:24.863Z,26.32
2022-08-26T08:04:53.233Z,26.34
2022-08-26T08:07:21.526Z,26.32
2022-08-26T08:10:11.620Z,26.12
2022-08-26T08:12:40.446Z,26.04
2022-08-26T08:15:13.806Z,26.07
2022-08-26T08:17:43.045Z,26.03
2022-08-26T08:20:12.994Z,25.70
2022-08-26T08:22:42.184Z,26.19
2022-08-26T08:25:13.344Z,26.30
2022-08-26T08:27:43.502Z,26.25
2022-08-26T08:30:13.748Z,26.42
2022-08-26T08:32:43.677Z,26.51
2022-08-26T08:35:14.097Z,26.75
2022-08-26T08:37:43.765Z,26.98
2022-08-26T08:40:18.591Z,27.20
2022-08-26T08:42:48.905Z,27.33
2022-08-26T08:45:23.584Z,27.51
2022-08-26T08:47:54.840Z,27.56
2022-08-26T08:50:27.447Z,27.05
2022-08-26T08:53:04.285Z,27.33
2022-08-26T08:55:50.213Z,26.97
2022-08-26T08:58:22.274Z,27.22
2022-08-26T09:00:55.740Z,27.42
2022-08-26T09:03:37.947Z,27.42
2022-08-26T09:06:17.091Z,27.77
2022-08-26T09:08:50.168Z,27.95
2022-08-26T09:11:21.285Z,28.04
2022-08-26T09:13:52.989Z,28.03
2022-08-26T09:16:26.237Z,28.11
2022-08-26T09:19:15.390Z,28.26
2022-08-26T09:21:47.478Z,28.22
2022-08-26T09:24:22.248Z,27.14
2022-08-26T09:26:52.927Z,27.94
2022-08-26T09:29:24.439Z,27.89
2022-08-26T09:31:54.105Z,27.79
2022-08-26T09:34:24.475Z,27.74
2022-08-26T09:36:54.885Z,27.08
2022-08-26T09:39:30.904Z,27.89
2022-08-26T09:42:14.165Z,28.12
2022-08-26T09:44:57.825Z,28.34
2022-08-26T09:47:30.329Z,28.51
2022-08-26T09:50:04.724Z,28.75
2022-08-26T09:52:38.305Z,28.79
2022-08-26T09:55:14.794Z,29.01
2022-08-26T09:57:51.221Z,29.12
2022-08-26T10:00:30.453Z,29.21
2022-08-26T10:03:00.113Z,29.07
2022-08-26T10:05:32.734Z,28.81
2022-08-26T10:08:01.835Z,28.75
2022-08-26T10:10:39.281Z,28.84
2022-08-26T10:13:15.284Z,28.73
2022-08-26T10:15:50.645Z,28.94
2022-08-26T10:18:24.787Z,29.06
2022-08-26T10:20:59.173Z,29.33
2022-08-26T10:23:32.475Z,29.25
2022-08-26T10:26:05.814Z,29.31
2022-08-26T10:28:42.477Z,29.26
2022-08-26T10:31:27.813Z,29.40
2022-08-26T10:34:00.487Z,29.57
2022-08-26T10:37:10.533Z,29.44
2022-08-26T10:39:46.030Z,29.52
2022-08-26T10:42:20.737Z,29.67
2022-08-26T10:44:53.244Z,29.63
2022-08-26T10:47:32.761Z,29.66
2022-08-26T10:50:03.385Z,29.71
2022-08-26T10:52:47.767Z,29.59
2022-08-26T10:55:24.186Z,29.57
2022-08-26T10:58:04.733Z,29.69
2022-08-26T11:01:01.089Z,29.85
2022-08-26T11:03:39.053Z,30.08
2022-08-26T11:06:25.094Z,30.07
2022-08-26T11:08:55.690Z,30.23
2022-08-26T11:11:48.063Z,30.48
2022-08-26T11:14:40.725Z,30.65
2022-08-26T11:17:55.473Z,30.72
2022-08-26T11:20:37.446Z,30.65
2022-08-26T11:23:40.357Z,30.53
2022-08-26T11:26:35.433Z,30.12
2022-08-26T11:29:12.953Z,30.33
2022-08-26T11:31:59.860Z,30.36
2022-08-26T11:34:56.319Z,29.23
2022-08-26T11:37:32.427Z,30.43
2022-08-26T11:40:04.143Z,30.77
2022-08-26T11:42:37.254Z,30.94
2022-08-26T11:45:19.390Z,31.11
2022-08-26T11:47:49.370Z,31.12
2022-08-26T11:50:23.510Z,31.10
2022-08-26T11:52:54.974Z,31.29
2022-08-26T11:55:24.306Z,31.37
2022-08-26T11:57:55.853Z,31.21
2022-08-26T12:00:27.705Z,31.23
2022-08-26T12:03:04.059Z,30.89
2022-08-26T12:05:38.204Z,31.36
2022-08-26T12:08:12.845Z,31.14
2022-08-26T12:10:41.007Z,31.42
2022-08-26T12:13:10.143Z,31.65
2022-08-26T12:15:38.723Z,31.90
2022-08-26T12:18:29.261Z,32.15
2022-08-26T12:21:01.703Z,32.31
2022-08-26T12:23:43.987Z,32.43
2022-08-26T12:26:20.670Z,32.51
2022-08-26T12:28:54.013Z,32.44
2022-08-26T12:31:26.151Z,32.49
2022-08-26T12:33:56.304Z,32.50
2022-08-26T12:36:31.708Z,32.39
2022-08-26T12:39:09.953Z,31.77
2022-08-26T12:41:56.555Z,32.28
2022-08-26T12:44:53.454Z,32.03
2022-08-26T12:47:33.850Z,32.07
2022-08-26T12:50:17.608Z,32.36
2022-08-26T12:52:59.924Z,32.66
2022-08-26T12:55:39.216Z,32.69
2022-08-26T12:58:30.137Z,32.34
2022-08-26T13:01:00.054Z,32.21
2022-08-26T13:03:44.998Z,32.20
2022-08-26T13:06:28.023Z,32.36
2022-08-26T13:08:59.226Z,32.63
2022-08-26T13:11:32.514Z,33.05
2022-08-26T13:14:02.596Z,33.33
2022-08-26T13:16:35.625Z,33.64
2022-08-26T13:19:10.076Z,34.09
2022-08-26T13:21:43.247Z,34.31
2022-08-26T13:24:14.224Z,34.56
2022-08-26T13:26:47.189Z,34.66
2022-08-26T13:29:15.725Z,34.77
2022-08-26T13:31:47.270Z,35.31
2022-08-26T13:34:19.492Z,35.63
2022-08-26T13:36:48.396Z,35.88
2022-08-26T13:39:17.504Z,36.04
2022-08-26T13:41:47.339Z,35.98
2022-08-26T13:44:15.532Z,36.02
2022-08-26T13:46:46.671Z,36.00
2022-08-26T13:49:15.436Z,36.23
2022-08-26T13:51:43.593Z,36.42
2022-08-26T13:54:11.758Z,36.69
2022-08-26T13:56:40.170Z,36.87
2022-08-26T13:59:10.094Z,37.08
2022-08-26T14:01:38.371Z,37.04
2022-08-26T14:04:06.567Z,36.11
2022-08-26T14:06:34.752Z,35.86
2022-08-26T14:09:02.964Z,35.62
2022-08-26T14:11:41.217Z,35.70
2022-08-26T14:14:20.752Z,35.92
2022-08-26T14:16:59.072Z,35.58
2022-08-26T14:19:29.743Z,35.38
2022-08-26T14:22:01.051Z,35.59
2022-08-26T14:24:29.507Z,35.78
2022-08-26T14:26:57.713Z,35.86
2022-08-26T14:29:27.355Z,35.60
2022-08-26T14:31:58.887Z,36.10
2022-08-26T14:34:27.275Z,36.11
2022-08-26T14:36:55.506Z,35.93
2022-08-26T14:39:23.687Z,36.00
2022-08-26T14:41:56.157Z,36.24
2022-08-26T14:44:29.208Z,36.49
2022-08-26T14:46:58.417Z,36.30
2022-08-26T14:49:27.480Z,36.45
2022-08-26T14:51:55.876Z,36.52
2022-08-26T14:54:23.215Z,36.57
2022-08-26T14:56:53.411Z,36.98
2022-08-26T14:59:23.613Z,36.41
2022-08-26T15:01:53.773Z,35.96
2022-08-26T15:04:23.178Z,36.18
2022-08-26T15:06:52.589Z,37.41
2022-08-26T15:09:20.835Z,38.79
2022-08-26T15:11:49.096Z,39.26
2022-08-26T15:14:20.096Z,39.33
2022-08-26T15:16:49.108Z,40.43
2022-08-26T15:19:19.341Z,41.82
2022-08-26T15:21:47.766Z,42.24
2022-08-26T15:24:18.605Z,42.25
2022-08-26T15:26:47.556Z,41.69
2022-08-26T15:29:16.415Z,42.14
2022-08-26T15:31:44.811Z,43.02
2022-08-26T15:34:16.785Z,43.97
2022-08-26T15:36:48.034Z,44.28
2022-08-26T15:39:17.652Z,44.27
2022-08-26T15:41:46.036Z,43.74
2022-08-26T15:44:17.063Z,43.16
2022-08-26T15:46:45.629Z,42.03
2022-08-26T15:49:18.297Z,41.93
2022-08-26T15:51:52.922Z,41.56
2022-08-26T15:54:23.893Z,41.44
2022-08-26T15:56:53.921Z,40.99
2022-08-26T15:59:23.178Z,40.42
2022-08-26T16:01:52.340Z,40.22
2022-08-26T16:04:20.776Z,40.39
2022-08-26T16:06:52.281Z,40.84
2022-08-26T16:09:23.862Z,41.21
2022-08-26T16:11:52.374Z,41.01
2022-08-26T16:14:20.586Z,40.74
2022-08-26T16:16:48.794Z,40.69
2022-08-26T16:19:16.990Z,40.79
2022-08-26T16:21:45.994Z,41.11
2022-08-26T16:24:15.678Z,39.92
2022-08-26T16:26:45.394Z,39.16
2022-08-26T16:29:17.111Z,37.78
2022-08-26T16:31:45.355Z,36.15
2022-08-26T16:34:13.534Z,34.80
2022-08-26T16:36:41.734Z,33.85
2022-08-26T16:39:10.879Z,33.28
2022-08-26T16:41:40.645Z,32.61
2022-08-26T16:44:09.554Z,32.16
2022-08-26T16:46:39.825Z,31.43
2022-08-26T16:49:08.133Z,31.29
2022-08-26T16:51:38.057Z,30.99
2022-08-26T16:54:07.670Z,30.65
2022-08-26T16:56:37.354Z,29.82
2022-08-26T16:59:10.635Z,30.12
2022-08-26T17:01:39.214Z,29.74
2022-08-26T17:04:07.454Z,29.15
2022-08-26T17:06:35.648Z,29.16
2022-08-26T17:09:04.366Z,28.96
2022-08-26T17:11:33.201Z,28.70
2022-08-26T17:14:01.373Z,28.75
2022-08-26T17:16:31.087Z,28.42
2022-08-26T17:19:00.696Z,28.16
2022-08-26T17:21:29.823Z,28.00
2022-08-26T17:23:58.098Z,27.92
2022-08-26T17:26:26.425Z,27.81
2022-08-26T17:28:55.276Z,27.75
2022-08-26T17:31:25.083Z,27.63
2022-08-26T17:33:55.613Z,27.62
2022-08-26T17:36:28.134Z,27.62
2022-08-26T17:38:57.878Z,27.45
2022-08-26T17:41:26.814Z,27.33
2022-08-26T17:43:55.164Z,27.31
2022-08-26T17:46:23.750Z,27.12
2022-08-26T17:48:52.135Z,27.02
2022-08-26T17:51:23.654Z,27.07
2022-08-26T17:53:52.834Z,27.02
2022-08-26T17:56:25.675Z,26.76
2022-08-26T17:58:56.845Z,26.75
2022-08-26T18:01:27.578Z,26.68
2022-08-26T18:04:00.260Z,26.65
2022-08-26T18:06:31.613Z,26.60
2022-08-26T18:09:00.215Z,26.04
2022-08-26T18:11:29.104Z,26.28
2022-08-26T18:13:57.315Z,26.12
2022-08-26T18:16:25.815Z,26.15
2022-08-26T18:18:54.728Z,25.91
2022-08-26T18:21:24.805Z,26.15
2022-08-26T18:23:55.493Z,26.02
2022-08-26T18:26:26.174Z,26.12
2022-08-26T18:28:54.947Z,26.06
2022-08-26T18:31:23.204Z,26.07
2022-08-26T18:33:51.995Z,25.92
2022-08-26T18:36:21.985Z,25.87
2022-08-26T18:38:51.324Z,25.82
2022-08-26T18:41:23.000Z,25.77
2022-08-26T18:43:53.251Z,25.76
2022-08-26T18:46:25.309Z,25.80
2022-08-26T18:48:54.947Z,25.87
2022-08-26T18:51:25.436Z,25.72
2022-08-26T18:53:54.404Z,25.75
2022-08-26T18:56:24.164Z,25.70
2022-08-26T18:58:54.326Z,25.71
2022-08-26T19:01:27.148Z,25.68
2022-08-26T19:03:57.032Z,25.57
2022-08-26T19:06:27.447Z,25.45
2022-08-26T19:08:57.954Z,25.35
2022-08-26T19:11:37.252Z,25.43
2022-08-26T19:14:13.286Z,25.49
2022-08-26T19:16:43.057Z,25.50
2022-08-26T19:19:11.790Z,25.32
2022-08-26T19:21:40.988Z,24.90
2022-08-26T19:24:15.835Z,25.22
2022-08-26T19:26:46.674Z,25.26
2022-08-26T19:31:47.248Z,25.17
2022-08-26T19:34:18.241Z,23.63
2022-08-26T19:36:49.795Z,25.17
2022-08-26T19:39:18.305Z,25.18
2022-08-26T19:41:48.537Z,25.13
2022-08-26T19:44:40.365Z,25.16
2022-08-26T19:47:09.955Z,25.00
2022-08-26T19:49:40.096Z,24.97
2022-08-26T19:52:08.914Z,24.79
2022-08-26T19:54:37.489Z,24.86
2022-08-26T19:57:07.756Z,24.65
2022-08-26T19:59:36.858Z,24.66
2022-08-26T20:02:10.029Z,24.63
2022-08-26T20:04:39.420Z,24.46
2022-08-26T20:07:08.024Z,24.69
2022-08-26T20:09:37.160Z,24.42
2022-08-26T20:12:08.494Z,24.46
2022-08-26T20:14:38.384Z,24.41
2022-08-26T20:17:07.657Z,23.56
2022-08-26T20:19:54.039Z,24.16
2022-08-26T20:22:24.423Z,24.31
2022-08-26T20:24:53.388Z,24.29
2022-08-26T20:27:37.753Z,24.29
2022-08-26T20:30:10.609Z,24.25
2022-08-26T20:32:39.936Z,24.24
2022-08-26T20:35:11.444Z,24.07
2022-08-26T20:37:40.771Z,24.17
2022-08-26T20:40:10.680Z,24.12
2022-08-26T20:42:40.832Z,24.19
2022-08-26T20:45:10.358Z,23.94
2022-08-26T20:47:38.855Z,23.90
2022-08-26T20:50:08.760Z,23.86
2022-08-26T20:52:37.249Z,23.77
2022-08-26T20:55:06.057Z,23.62
2022-08-26T20:57:34.318Z,23.63
2022-08-26T21:00:05.032Z,23.73
2022-08-26T21:02:33.319Z,23.74
2022-08-26T21:05:01.765Z,23.71
2022-08-26T21:07:30.467Z,23.63
2022-08-26T21:09:58.748Z,23.62
2022-08-26T21:12:27.989Z,23.55
2022-08-26T21:14:56.476Z,23.50
2022-08-26T21:17:26.084Z,23.48
2022-08-26T21:19:54.552Z,23.52
2022-08-26T21:22:23.156Z,23.64
2022-08-26T21:24:51.425Z,23.55
2022-08-26T21:27:26.100Z,23.53
2022-08-26T21:29:55.105Z,23.46
2022-08-26T21:32:23.416Z,23.56
2022-08-26T21:34:56.011Z,23.59
2022-08-26T21:37:25.067Z,23.58
2022-08-26T21:39:55.567Z,23.47
2022-08-26T21:42:24.535Z,23.29
2022-08-26T21:44:54.618Z,23.17
2022-08-26T21:47:23.306Z,23.22
2022-08-26T21:49:53.425Z,23.29
2022-08-26T21:52:22.701Z,23.31
2022-08-26T21:54:51.080Z,23.34
2022-08-26T21:57:19.636Z,23.18
2022-08-26T21:59:47.903Z,23.21
2022-08-26T22:02:16.260Z,23.05
2022-08-26T22:04:48.557Z,23.23
2022-08-26T22:07:20.011Z,23.15
2022-08-26T22:09:48.834Z,23.18
2022-08-26T22:12:18.497Z,23.00
2022-08-26T22:14:47.281Z,22.92
2022-08-26T22:17:17.137Z,22.96
2022-08-26T22:19:46.065Z,22.90
2022-08-26T22:22:16.174Z,22.88
2022-08-26T22:24:45.858Z,23.00
2022-08-26T22:27:15.175Z,22.86
2022-08-26T22:29:43.571Z,22.77
2022-08-26T22:32:11.817Z,22.68
2022-08-26T22:34:40.684Z,22.74
2022-08-26T22:37:09.460Z,22.74
2022-08-26T22:39:38.164Z,22.87
2022-08-26T22:42:07.946Z,22.86
2022-08-26T22:44:37.711Z,22.77
2022-08-26T22:47:06.259Z,22.75
2022-08-26T22:49:34.540Z,22.66
2022-08-26T22:52:02.878Z,22.64
2022-08-26T22:54:31.065Z,22.58
2022-08-26T22:56:59.325Z,22.57
2022-08-26T22:59:30.251Z,22.51
2022-08-26T23:01:58.542Z,22.44
2022-08-26T23:04:26.963Z,22.56
2022-08-26T23:06:55.160Z,22.44
2022-08-26T23:09:23.465Z,22.38
2022-08-26T23:11:51.793Z,22.31
2022-08-26T23:14:20.256Z,22.24
2022-08-26T23:16:50.188Z,22.29
2022-08-26T23:19:21.462Z,22.34
2022-08-26T23:21:50.233Z,22.28
2022-08-26T23:24:18.854Z,22.40
2022-08-26T23:26:47.734Z,21.85
2022-08-26T23:29:16.569Z,22.45
2022-08-26T23:31:45.446Z,22.39
2022-08-26T23:34:33.257Z,22.45
2022-08-26T23:37:01.727Z,22.35
2022-08-26T23:39:30.673Z,22.24
2022-08-26T23:42:01.764Z,22.35
2022-08-26T23:44:31.583Z,22.36
2022-08-26T23:47:00.836Z,22.27
2022-08-26T23:49:30.905Z,22.31
2022-08-26T23:52:16.459Z,22.26
2022-08-26T23:54:45.478Z,22.27
2022-08-26T23:57:13.809Z,22.09
2022-08-26T23:59:42.800Z,22.14
